Time;durP1;ratioP1;P1;durP2;ratioP2;P2;SDS_P1;SDS_P2;PMS_P1;PMS_P2;Temp;Humidity;BMP_temperature;BMP_pressure;BME280_temperature;BME280_humidity;BME280_pressure;Samples;Min_cycle;Max_cycle;Signal;HPM_P1;HPM_P2
2024/01/22 00:00:09;;;;;;;;;27.50;25.50;;;;;5.14;92.27;99889.50;6267108;27;96190;-57
2024/01/22 00:03:16;;;;;;;;;28.00;27.00;;;;;5.05;91.34;99881.63;6283012;27;96248;-57
2024/01/22 00:06:20;;;;;;;;;31.00;27.40;;;;;5.04;91.21;99888.81;6286506;27;96230;-57
2024/01/22 00:09:24;;;;;;;;;27.60;25.00;;;;;4.99;91.63;99876.94;6291591;27;96957;-57
2024/01/22 00:12:27;;;;;;;;;32.25;30.00;;;;;4.96;91.24;99880.78;6291991;27;96209;-57
2024/01/22 00:15:30;;;;;;;;;34.00;28.80;;;;;4.93;90.43;99873.09;6292022;27;96123;-57
2024/01/22 00:18:33;;;;;;;;;36.00;29.60;;;;;4.89;91.09;99874.38;6269852;27;99032;-57
2024/01/22 00:21:41;;;;;;;;;40.00;32.00;;;;;4.78;92.24;99872.03;6265344;27;96188;-56
2024/01/22 00:24:44;;;;;;;;;35.60;30.60;;;;;4.68;94.06;99871.31;6286363;27;96997;-57
2024/01/22 00:27:47;;;;;;;;;36.00;30.00;;;;;4.58;95.93;99878.59;6282287;27;96300;-57
2024/01/22 00:30:50;;;;;;;;;38.40;30.40;;;;;4.48;96.87;99877.88;6285708;27;97488;-56
2024/01/22 00:33:53;;;;;;;;;31.00;28.00;;;;;4.45;94.87;99871.00;6262652;27;97083;-57
2024/01/22 00:36:58;;;;;;;;;20.80;19.80;;;;;4.51;87.60;99870.38;6264402;27;96748;-57
2024/01/22 00:40:02;;;;;;;;;20.00;18.00;;;;;4.60;86.64;99872.09;6270668;27;96659;-57
2024/01/22 00:43:05;;;;;;;;;20.80;19.80;;;;;4.65;85.39;99864.44;6291552;27;96268;-57
2024/01/22 00:46:08;;;;;;;;;18.50;16.50;;;;;4.69;82.29;99871.13;6291643;27;96267;-57
2024/01/22 00:49:11;;;;;;;;;23.50;18.50;;;;;4.72;81.08;99857.47;6291502;27;96311;-56
2024/01/22 00:52:16;;;;;;;;;19.50;18.25;;;;;4.82;80.66;99873.38;6256293;27;96371;-55
2024/01/22 00:55:19;;;;;;;;;21.00;19.00;;;;;4.85;79.21;99870.38;6252978;27;96705;-56
2024/01/22 00:58:22;;;;;;;;;21.00;18.00;;;;;4.94;79.39;99879.25;6244865;27;96309;-55
2024/01/22 01:01:25;;;;;;;;;20.00;16.00;;;;;5.00;78.29;99881.28;6253085;27;96966;-56
2024/01/22 01:04:28;;;;;;;;;18.00;16.00;;;;;5.02;78.42;99882.81;6260165;27;96353;-56
2024/01/22 01:07:33;;;;;;;;;18.60;17.00;;;;;4.99;77.74;99887.63;6263839;27;96358;-56
2024/01/22 01:10:37;;;;;;;;;19.00;17.00;;;;;4.99;77.97;99876.94;6263673;27;96682;-56
2024/01/22 01:13:40;;;;;;;;;23.50;20.00;;;;;5.01;78.81;99869.59;6262908;27;96837;-56
2024/01/22 01:16:43;;;;;;;;;20.40;19.00;;;;;4.95;78.27;99873.75;6242876;27;96245;-56
2024/01/22 01:19:46;;;;;;;;;22.40;19.00;;;;;4.93;77.62;99877.59;6243791;27;96687;-56
2024/01/22 01:22:51;;;;;;;;;22.20;19.00;;;;;4.79;79.50;99861.16;6247299;27;96364;-56
2024/01/22 01:25:54;;;;;;;;;24.60;20.40;;;;;4.69;82.22;99852.44;6245743;27;96915;-56
2024/01/22 01:28:57;;;;;;;;;24.00;22.80;;;;;4.50;86.46;99846.50;6264103;27;96281;-56
2024/01/22 01:32:00;;;;;;;;;35.80;31.00;;;;;4.28;90.62;99851.41;6254920;27;96662;-56
2024/01/22 01:35:04;;;;;;;;;33.60;30.00;;;;;4.13;92.74;99836.97;6263235;27;96449;-56
2024/01/22 01:38:08;;;;;;;;;32.50;28.50;;;;;4.01;93.62;99832.88;6263643;27;97542;-56
2024/01/22 01:41:11;;;;;;;;;36.00;27.60;;;;;3.75;94.38;99808.03;6263635;27;96247;-56
2024/01/22 01:44:14;;;;;;;;;28.60;25.00;;;;;3.82;93.85;99830.41;6263354;27;96507;-56
2024/01/22 01:47:18;;;;;;;;;25.50;22.50;;;;;3.77;91.74;99817.53;6259164;27;96227;-56
2024/01/22 01:50:22;;;;;;;;;23.20;22.20;;;;;3.75;90.13;99810.72;6241245;27;96278;-56
2024/01/22 01:53:29;;;;;;;;;25.00;21.00;;;;;3.75;89.11;99816.03;6238143;28;96179;-56
2024/01/22 01:56:33;;;;;;;;;18.00;16.00;;;;;3.71;84.71;99802.19;6261733;27;96285;-56
2024/01/22 01:59:36;;;;;;;;;10.40;10.40;;;;;3.76;80.23;99802.53;6244429;27;98522;-56
2024/01/22 02:02:39;;;;;;;;;13.00;12.80;;;;;3.92;80.01;99807.16;6286708;22;97516;-57
2024/01/22 02:05:43;;;;;;;;;13.00;11.00;;;;;4.05;74.71;99802.25;6263086;27;96810;-57
2024/01/22 02:08:52;;;;;;;;;13.00;12.50;;;;;4.24;70.13;99798.50;6271757;27;97633;-57
2024/01/22 02:11:55;;;;;;;;;11.60;11.60;;;;;4.39;69.62;99785.41;6230300;27;96923;-57
2024/01/22 02:14:59;;;;;;;;;14.00;12.60;;;;;4.53;67.35;99769.59;6238371;28;96569;-57
2024/01/22 02:18:02;;;;;;;;;13.00;11.00;;;;;4.64;66.64;99749.78;6225083;27;96272;-57
2024/01/22 02:21:05;;;;;;;;;12.00;11.00;;;;;4.73;64.06;99754.97;6235951;27;96241;-57
2024/01/22 02:24:10;;;;;;;;;9.00;8.00;;;;;4.78;62.13;99747.31;6225826;27;96187;-58
2024/01/22 02:27:13;;;;;;;;;10.40;8.00;;;;;4.88;60.50;99746.31;6214558;28;96480;-58
2024/01/22 02:30:17;;;;;;;;;5.00;4.60;;;;;4.94;60.21;99748.31;6237198;28;96269;-57
2024/01/22 02:33:20;;;;;;;;;7.60;7.00;;;;;4.99;59.48;99745.97;6240066;27;96256;-57
2024/01/22 02:36:23;;;;;;;;;7.00;6.75;;;;;5.07;58.63;99735.31;6241338;27;96437;-57
2024/01/22 02:39:29;;;;;;;;;5.20;5.00;;;;;5.11;56.96;99723.28;6245196;27;96390;-57
2024/01/22 02:42:33;;;;;;;;;6.00;5.60;;;;;5.19;57.69;99715.25;6259282;27;96441;-58
2024/01/22 02:45:36;;;;;;;;;7.00;7.00;;;;;5.27;58.53;99717.97;6233044;28;96465;-58
2024/01/22 02:48:39;;;;;;;;;7.00;5.25;;;;;5.33;58.13;99716.41;6215518;27;96456;-58
2024/01/22 02:51:44;;;;;;;;;7.00;5.00;;;;;5.30;57.54;99695.38;6213196;28;96892;-57
2024/01/22 02:54:48;;;;;;;;;6.80;6.40;;;;;5.43;56.38;99704.56;6214081;28;96290;-57
2024/01/22 02:57:52;;;;;;;;;5.60;5.60;;;;;5.47;56.74;99703.22;6214302;28;96491;-57
2024/01/22 03:00:56;;;;;;;;;4.50;4.50;;;;;5.49;56.28;99692.34;6229518;27;96141;-58
2024/01/22 03:03:59;;;;;;;;;5.00;4.50;;;;;5.52;54.97;99687.50;6233617;28;96670;-58
2024/01/22 03:07:02;;;;;;;;;6.75;6.75;;;;;5.55;55.29;99689.00;6216259;27;96207;-58
2024/01/22 03:10:08;;;;;;;;;7.60;5.00;;;;;5.53;56.09;99691.84;6252094;27;96776;-58
2024/01/22 03:13:11;;;;;;;;;5.40;5.40;;;;;5.48;56.35;99688.84;6258342;28;96245;-61
2024/01/22 03:16:15;;;;;;;;;5.00;4.00;;;;;5.44;56.40;99681.31;6238739;28;96468;-62
2024/01/22 03:19:18;;;;;;;;;7.60;7.00;;;;;5.31;56.93;99673.84;6238522;28;96299;-61
2024/01/22 03:22:21;;;;;;;;;8.00;7.60;;;;;5.27;57.84;99683.19;6238827;28;96847;-62
2024/01/22 03:25:25;;;;;;;;;9.00;9.00;;;;;5.22;58.35;99691.72;6242809;27;96676;-61
2024/01/22 03:28:30;;;;;;;;;9.00;8.00;;;;;5.20;58.80;99685.69;6268881;27;96361;-57
2024/01/22 03:31:37;;;;;;;;;10.80;8.80;;;;;5.18;59.65;99682.34;6258094;28;96300;-60
2024/01/22 03:34:40;;;;;;;;;8.00;7.60;;;;;5.14;59.63;99678.34;6261473;27;96253;-61
2024/01/22 03:37:44;;;;;;;;;9.00;7.40;;;;;5.10;60.10;99686.88;6235095;28;98545;-62
2024/01/22 03:40:48;;;;;;;;;13.75;12.50;;;;;5.05;60.96;99686.53;6233963;28;96207;-61
2024/01/22 03:43:51;;;;;;;;;11.00;10.20;;;;;4.96;61.96;99680.34;6246510;27;96247;-62
2024/01/22 03:46:54;;;;;;;;;13.40;12.00;;;;;4.92;62.79;99684.38;6232955;28;98361;-61
2024/01/22 03:49:57;;;;;;;;;14.00;13.00;;;;;4.88;63.27;99690.22;6238760;27;96378;-62
2024/01/22 03:53:01;;;;;;;;;15.00;13.00;;;;;4.82;63.10;99677.50;6260532;27;96209;-62
2024/01/22 03:56:06;;;;;;;;;14.00;12.40;;;;;4.79;62.31;99673.31;6260820;27;98304;-60
2024/01/22 03:59:10;;;;;;;;;13.75;12.75;;;;;4.79;61.32;99676.00;6258347;28;96310;-62
2024/01/22 04:02:13;;;;;;;;;13.50;13.50;;;;;4.77;61.49;99672.66;6271338;27;96806;-63
2024/01/22 04:05:16;;;;;;;;;14.60;13.40;;;;;4.78;61.36;99671.66;6283606;27;96255;-62
2024/01/22 04:08:20;;;;;;;;;14.00;13.00;;;;;4.77;62.06;99668.16;6257776;27;96179;-61
2024/01/22 04:11:24;;;;;;;;;15.75;13.75;;;;;4.75;62.59;99663.97;6267026;27;96187;-62
2024/01/22 04:14:27;;;;;;;;;15.00;13.20;;;;;4.69;63.00;99651.31;6246124;27;96406;-60
2024/01/22 04:17:31;;;;;;;;;10.50;10.50;;;;;4.67;61.71;99655.97;6263754;27;97349;-62
2024/01/22 04:20:34;;;;;;;;;12.00;11.40;;;;;4.65;61.13;99640.09;6272016;27;96199;-62
2024/01/22 04:23:37;;;;;;;;;11.00;10.00;;;;;4.59;59.75;99632.75;6261743;27;96272;-59
2024/01/22 04:26:42;;;;;;;;;8.20;7.40;;;;;4.73;57.67;99641.94;6234191;27;96799;-58
2024/01/22 04:29:45;;;;;;;;;8.00;6.00;;;;;4.79;56.14;99641.25;6237387;27;96495;-59
2024/01/22 04:32:48;;;;;;;;;7.80;7.00;;;;;4.72;56.19;99626.91;6237581;28;96473;-58
2024/01/22 04:35:52;;;;;;;;;6.00;5.60;;;;;4.94;54.89;99633.41;6237060;27;96207;-59
2024/01/22 04:38:55;;;;;;;;;7.40;7.40;;;;;5.00;54.32;99628.25;6236996;27;96693;-59
2024/01/22 04:42:00;;;;;;;;;8.00;7.25;;;;;5.05;54.64;99641.09;6224463;27;96330;-59
2024/01/22 04:45:03;;;;;;;;;8.25;6.25;;;;;5.10;54.15;99620.03;6215288;28;96203;-59
2024/01/22 04:48:06;;;;;;;;;7.00;7.00;;;;;5.11;53.39;99624.41;6229350;27;96377;-59
2024/01/22 04:51:10;;;;;;;;;9.40;7.40;;;;;5.18;53.17;99626.22;6240786;27;96767;-59
2024/01/22 04:54:13;;;;;;;;;6.60;6.00;;;;;5.22;52.68;99619.56;6225643;28;96322;-59
2024/01/22 04:57:17;;;;;;;;;8.00;7.00;;;;;5.26;52.41;99616.53;6233816;27;96458;-59
2024/01/22 05:00:21;;;;;;;;;8.40;8.00;;;;;5.23;51.77;99596.28;6228806;28;96213;-59
2024/01/22 05:03:24;;;;;;;;;10.00;9.00;;;;;5.18;50.55;99606.69;6225297;27;96263;-59
2024/01/22 05:06:27;;;;;;;;;8.00;7.00;;;;;5.15;50.00;99591.81;6229525;27;96492;-59
2024/01/22 05:09:31;;;;;;;;;6.60;6.00;;;;;5.30;50.37;99596.47;6218521;28;96339;-59
2024/01/22 05:12:35;;;;;;;;;7.00;6.00;;;;;5.33;49.44;99590.75;6230101;27;96354;-58
2024/01/22 05:15:38;;;;;;;;;8.00;8.00;;;;;5.41;49.47;99594.25;6237901;27;97100;-59
2024/01/22 05:18:42;;;;;;;;;6.75;6.00;;;;;5.45;49.00;99594.75;6222906;27;98098;-59
2024/01/22 05:21:45;;;;;;;;;8.20;6.80;;;;;5.53;48.64;99603.56;6237962;27;97286;-58
2024/01/22 05:24:48;;;;;;;;;7.00;6.00;;;;;5.62;49.10;99605.22;6228860;27;96664;-59
2024/01/22 05:27:53;;;;;;;;;6.50;6.00;;;;;5.66;48.87;99603.88;6229489;27;96494;-59
2024/01/22 05:30:56;;;;;;;;;7.40;6.40;;;;;5.66;50.26;99595.84;6226470;27;96402;-59
2024/01/22 05:33:59;;;;;;;;;6.00;6.00;;;;;5.65;51.45;99598.69;6228097;28;97042;-57
2024/01/22 05:37:03;;;;;;;;;5.20;5.00;;;;;5.58;52.50;99593.19;6230455;27;96228;-57
2024/01/22 05:40:09;;;;;;;;;7.40;6.00;;;;;5.50;52.19;99584.38;6219040;27;96910;-57
2024/01/22 05:43:14;;;;;;;;;5.60;5.60;;;;;5.51;52.56;99594.91;6237552;28;97483;-57
2024/01/22 05:46:17;;;;;;;;;8.00;7.00;;;;;5.43;53.00;99583.38;6232515;27;96446;-57
2024/01/22 05:49:21;;;;;;;;;7.00;6.00;;;;;5.37;52.81;99578.75;6224330;28;96544;-56
2024/01/22 05:52:24;;;;;;;;;8.00;6.20;;;;;5.30;54.07;99583.94;6224336;27;97022;-56
2024/01/22 05:55:28;;;;;;;;;8.00;6.00;;;;;5.22;54.85;99586.63;6219043;28;96421;-57
2024/01/22 05:58:32;;;;;;;;;7.00;6.00;;;;;5.16;55.09;99585.47;6234841;27;96912;-56
2024/01/22 06:01:36;;;;;;;;;10.00;9.40;;;;;5.02;55.45;99575.47;6236763;27;96960;-56
2024/01/22 06:04:39;;;;;;;;;9.00;8.00;;;;;5.00;56.16;99577.47;6213373;28;97475;-56
2024/01/22 06:07:42;;;;;;;;;8.80;8.00;;;;;5.02;56.21;99570.13;6212689;28;96463;-57
2024/01/22 06:10:50;;;;;;;;;10.80;9.00;;;;;5.03;56.21;99574.47;6219210;28;96784;-57
2024/01/22 06:13:56;;;;;;;;;10.00;9.00;;;;;5.05;55.90;99569.78;6226465;28;96279;-57
2024/01/22 06:17:05;;;;;;;;;9.40;9.00;;;;;5.07;57.12;99566.94;6222062;27;97052;-57
2024/01/22 06:20:11;;;;;;;;;10.75;10.00;;;;;5.07;57.55;99573.13;6216358;28;96268;-57
2024/01/22 06:23:14;;;;;;;;;9.50;8.50;;;;;5.07;58.43;99570.47;6214344;28;96265;-57
2024/01/22 06:26:17;;;;;;;;;11.00;10.40;;;;;4.98;59.37;99551.94;6237893;28;96840;-57
2024/01/22 06:29:22;;;;;;;;;15.00;12.20;;;;;5.06;62.77;99558.09;6254549;27;96718;-57
2024/01/22 06:32:25;;;;;;;;;34.50;30.00;;;;;4.88;68.33;99554.78;6250965;27;96326;-56
2024/01/22 06:35:32;;;;;;;;;46.75;38.00;;;;;4.74;73.45;99555.47;6221114;28;96240;-56
2024/01/22 06:38:35;;;;;;;;;52.20;41.00;;;;;4.57;78.33;99541.28;6231181;27;96733;-57
2024/01/22 06:41:38;;;;;;;;;51.20;40.60;;;;;4.53;80.06;99542.63;6214369;27;96558;-59
2024/01/22 06:44:43;;;;;;;;;56.40;44.00;;;;;4.49;82.85;99530.63;6239073;27;96208;-58
2024/01/22 06:47:46;;;;;;;;;52.75;42.75;;;;;4.48;84.16;99520.09;6239211;28;96341;-58
2024/01/22 06:50:49;;;;;;;;;52.00;41.60;;;;;4.51;85.05;99523.25;6238640;27;96481;-58
2024/01/22 06:53:52;;;;;;;;;55.00;43.60;;;;;4.55;84.53;99521.06;6240304;27;96372;-61
2024/01/22 06:56:56;;;;;;;;;54.20;43.60;;;;;4.59;85.05;99511.75;6239163;27;96910;-61
2024/01/22 07:00:06;;;;;;;;;53.00;44.00;;;;;4.63;85.44;99507.72;6238642;28;97760;-61
2024/01/22 07:03:12;;;;;;;;;56.25;45.25;;;;;4.67;85.75;99501.88;6236409;27;96229;-60
2024/01/22 07:06:15;;;;;;;;;55.40;45.00;;;;;4.72;85.95;99506.72;6262268;27;96201;-61
2024/01/22 07:09:18;;;;;;;;;54.60;43.80;;;;;4.75;85.53;99491.19;6276624;27;96261;-60
2024/01/22 07:12:21;;;;;;;;;50.00;41.00;;;;;4.82;84.72;99495.84;6254416;27;96482;-59
2024/01/22 07:15:26;;;;;;;;;50.60;41.00;;;;;4.89;83.74;99483.50;6238021;28;96354;-60
2024/01/22 07:18:29;;;;;;;;;49.60;41.00;;;;;4.97;82.89;99486.97;6239949;28;96674;-61
2024/01/22 07:21:33;;;;;;;;;53.75;42.50;;;;;5.04;84.00;99479.91;6270564;27;96344;-61
2024/01/22 07:24:37;;;;;;;;;55.80;44.20;;;;;5.12;84.21;99471.06;6276638;27;96244;-61
2024/01/22 07:27:42;;;;;;;;;53.00;42.00;;;;;5.44;84.15;99473.56;6257367;27;96313;-62
2024/01/22 07:30:46;;;;;;;;;55.00;43.00;;;;;5.87;84.00;99460.66;6255226;27;97022;-60
2024/01/22 07:33:49;;;;;;;;;56.80;44.00;;;;;7.20;82.15;99465.25;6238308;27;97051;-62
2024/01/22 07:36:53;;;;;;;;;56.00;44.80;;;;;9.29;73.49;99454.81;6268497;27;96600;-61
2024/01/22 07:39:56;;;;;;;;;52.00;41.50;;;;;12.17;62.44;99448.63;6272225;27;96179;-62
2024/01/22 07:42:59;;;;;;;;;52.40;42.00;;;;;15.03;52.64;99438.19;6270695;27;96331;-62
2024/01/22 07:46:04;;;;;;;;;53.67;43.00;;;;;17.72;45.43;99430.97;6273914;27;96346;-62
2024/01/22 07:49:08;;;;;;;;;53.00;43.00;;;;;19.91;39.61;99420.59;6275067;27;96446;-61
2024/01/22 07:52:11;;;;;;;;;56.00;44.00;;;;;21.49;36.07;99408.53;6272360;27;96393;-57
2024/01/22 07:55:17;;;;;;;;;56.40;45.00;;;;;22.79;33.24;99408.00;6249175;27;96715;-57
2024/01/22 07:58:21;;;;;;;;;56.75;44.75;;;;;23.78;31.46;99400.06;6236814;28;96428;-57
2024/01/22 08:01:25;;;;;;;;;54.60;43.00;;;;;24.79;30.07;99402.09;6236378;28;96318;-57
2024/01/22 08:04:29;;;;;;;;;29.00;25.00;;;;;25.34;24.41;99385.66;6212459;28;96402;-57
2024/01/22 08:07:32;;;;;;;;;21.80;19.00;;;;;25.79;22.71;99378.38;6211733;28;97636;-58
2024/01/22 08:10:35;;;;;;;;;19.00;16.50;;;;;26.23;21.94;99370.22;6213448;28;96871;-57
2024/01/22 08:13:39;;;;;;;;;12.20;10.00;;;;;27.04;20.46;99372.84;6227598;28;96551;-57
2024/01/22 08:16:45;;;;;;;;;10.40;9.00;;;;;28.11;19.12;99359.47;6228844;27;97546;-57
2024/01/22 08:19:49;;;;;;;;;5.20;4.80;;;;;28.93;17.63;99341.81;6231366;28;97003;-58
2024/01/22 08:22:52;;;;;;;;;8.00;8.00;;;;;30.26;18.40;99342.81;6220713;28;96695;-57
2024/01/22 08:25:55;;;;;;;;;5.60;5.60;;;;;31.29;17.21;99354.84;6222962;28;96786;-57
2024/01/22 08:28:58;;;;;;;;;7.40;6.00;;;;;32.47;17.02;99335.84;6245498;27;96511;-58
2024/01/22 08:32:03;;;;;;;;;6.60;5.60;;;;;33.86;16.57;99323.47;6237190;27;97421;-58
2024/01/22 08:35:09;;;;;;;;;5.40;4.60;;;;;35.08;15.57;99322.72;6214750;28;97448;-57
2024/01/22 08:38:13;;;;;;;;;6.00;4.50;;;;;36.47;15.34;99329.22;6220497;28;97460;-58
2024/01/22 08:41:19;;;;;;;;;5.00;4.40;;;;;37.71;14.17;99310.72;6230155;28;96443;-58
2024/01/22 08:44:22;;;;;;;;;5.00;4.00;;;;;38.34;13.76;99301.78;6211960;28;96371;-58
2024/01/22 08:47:26;;;;;;;;;5.50;5.00;;;;;38.05;13.87;99291.63;6225681;28;96344;-58
2024/01/22 08:50:29;;;;;;;;;8.00;7.00;;;;;37.83;14.53;99282.22;6208502;28;96525;-58
2024/01/22 08:53:33;;;;;;;;;6.00;6.00;;;;;37.42;14.10;99275.13;6209032;28;97028;-58
2024/01/22 08:56:37;;;;;;;;;6.20;6.00;;;;;36.54;14.16;99263.88;6224646;28;96510;-57
2024/01/22 08:59:40;;;;;;;;;7.00;7.00;;;;;35.83;13.98;99265.81;6233332;28;96551;-57
2024/01/22 09:02:45;;;;;;;;;4.25;4.00;;;;;35.90;14.47;99263.13;6221835;28;98094;-58
2024/01/22 09:05:48;;;;;;;;;3.00;3.00;;;;;36.21;13.50;99251.53;6208704;28;96393;-59
2024/01/22 09:08:52;;;;;;;;;4.00;4.00;;;;;36.64;13.91;99240.75;6208570;28;96482;-60
2024/01/22 09:11:55;;;;;;;;;4.00;4.00;;;;;36.66;13.65;99241.16;6227611;28;96439;-60
2024/01/22 09:14:58;;;;;;;;;4.00;3.40;;;;;36.44;12.81;99235.31;6236413;28;97021;-60
2024/01/22 09:18:03;;;;;;;;;3.00;3.00;;;;;37.05;14.09;99221.81;6236518;28;96511;-60
2024/01/22 09:21:08;;;;;;;;;3.00;2.00;;;;;37.49;12.79;99235.78;6235855;27;96420;-60
2024/01/22 09:24:11;;;;;;;;;4.40;3.40;;;;;37.14;12.87;99220.31;6235846;28;96425;-60
2024/01/22 09:27:15;;;;;;;;;3.00;3.00;;;;;37.18;13.04;99221.16;6238721;27;96808;-60
2024/01/22 09:30:19;;;;;;;;;2.00;2.00;;;;;37.13;13.03;99217.91;6240777;28;96874;-59
2024/01/22 09:33:24;;;;;;;;;3.00;3.00;;;;;37.28;13.02;99208.38;6215094;28;96499;-59
2024/01/22 09:36:27;;;;;;;;;4.00;3.00;;;;;37.25;12.63;99193.06;6215293;28;96724;-60
2024/01/22 09:39:31;;;;;;;;;5.00;4.00;;;;;37.40;13.25;99176.28;6215284;28;97593;-60
2024/01/22 09:42:35;;;;;;;;;6.00;5.00;;;;;37.47;13.35;99181.94;6215343;28;96303;-60
2024/01/22 09:45:38;;;;;;;;;6.00;5.60;;;;;37.10;13.11;99171.69;6215191;28;96328;-60
2024/01/22 09:48:43;;;;;;;;;6.75;6.25;;;;;36.62;12.63;99168.09;6215242;28;96294;-60
2024/01/22 09:51:47;;;;;;;;;4.20;4.20;;;;;36.39;12.58;99148.63;6215271;28;96262;-60
2024/01/22 09:54:52;;;;;;;;;6.00;5.80;;;;;36.57;13.25;99150.75;6214830;28;96650;-60
2024/01/22 09:58:00;;;;;;;;;5.80;5.20;;;;;36.60;12.77;99144.38;6218444;28;96304;-60
2024/01/22 10:01:04;;;;;;;;;5.00;4.00;;;;;36.74;12.54;99150.13;6236715;28;97501;-60
2024/01/22 10:04:10;;;;;;;;;2.00;2.00;;;;;36.92;12.37;99142.63;6216768;27;96162;-61
2024/01/22 10:07:15;;;;;;;;;3.25;3.00;;;;;36.50;12.76;99137.47;6215417;28;96248;-61
2024/01/22 10:10:20;;;;;;;;;5.00;4.20;;;;;36.27;12.58;99131.22;6214857;28;96461;-60
2024/01/22 10:13:23;;;;;;;;;3.00;3.00;;;;;35.54;12.77;99125.19;6215274;28;96511;-58
2024/01/22 10:16:27;;;;;;;;;2.25;2.25;;;;;33.90;13.15;99120.97;6214998;28;96745;-58
2024/01/22 10:19:31;;;;;;;;;3.00;3.00;;;;;32.32;13.27;99118.16;6214779;28;96419;-58
2024/01/22 10:22:35;;;;;;;;;4.00;3.00;;;;;30.49;13.93;99113.19;6214643;28;96296;-58
2024/01/22 10:25:38;;;;;;;;;4.00;4.00;;;;;28.79;14.31;99081.97;6219669;28;96780;-58
2024/01/22 10:28:42;;;;;;;;;3.60;2.00;;;;;27.99;14.82;99105.16;6237766;27;96491;-58
2024/01/22 10:31:55;;;;;;;;;3.00;3.00;;;;;26.90;15.49;99118.41;6229061;28;96970;-58
2024/01/22 10:35:01;;;;;;;;;2.00;2.00;;;;;25.90;15.91;99122.88;6237784;28;96235;-58
2024/01/22 10:38:12;;;;;;;;;3.00;2.67;;;;;25.07;16.45;99110.53;6239597;27;96421;-57
2024/01/22 10:41:19;;;;;;;;;3.50;3.00;;;;;24.73;17.09;99119.28;6233931;28;96265;-58
2024/01/22 10:44:24;;;;;;;;;6.00;5.00;;;;;25.04;17.28;99119.44;6232900;27;96958;-58
2024/01/22 10:47:31;;;;;;;;;9.60;8.00;;;;;25.55;17.58;99124.63;6238988;28;96302;-58
2024/01/22 10:50:37;;;;;;;;;12.00;11.00;;;;;25.71;18.36;99122.25;6238788;28;96973;-57
2024/01/22 10:53:42;;;;;;;;;29.50;25.75;;;;;25.84;19.35;99097.34;6238577;28;96174;-58
2024/01/22 10:56:57;;;;;;;;;30.20;28.00;;;;;26.19;20.46;99119.63;6229040;28;96529;-57
2024/01/22 11:00:06;;;;;;;;;40.00;34.00;;;;;26.07;20.91;99111.91;6233586;27;96633;-57
2024/01/22 11:03:13;;;;;;;;;41.00;34.00;;;;;25.82;21.37;99118.94;6230719;28;97085;-58
2024/01/22 11:06:21;;;;;;;;;38.00;33.00;;;;;25.34;22.06;99106.88;6237577;28;96347;-58
2024/01/22 11:09:26;;;;;;;;;42.50;35.50;;;;;24.54;23.13;99091.03;6237966;28;96249;-57
2024/01/22 11:12:38;;;;;;;;;42.40;36.40;;;;;24.17;24.00;99103.09;6237492;28;96239;-57
2024/01/22 11:15:42;;;;;;;;;32.20;28.60;;;;;23.71;22.21;99108.59;6238524;28;96541;-59
2024/01/22 11:19:00;;;;;;;;;42.00;34.40;;;;;23.45;23.81;99107.41;6238113;28;96986;-58
2024/01/22 11:22:09;;;;;;;;;35.00;31.00;;;;;23.03;23.70;99097.28;6237765;28;96325;-58
2024/01/22 11:25:13;;;;;;;;;31.50;27.50;;;;;22.67;23.73;99094.22;6241513;28;96421;-54
2024/01/22 11:28:17;;;;;;;;;29.40;27.00;;;;;22.30;23.63;99106.78;6224143;27;98187;-55
2024/01/22 11:31:26;;;;;;;;;24.00;22.50;;;;;21.99;22.96;99097.25;6227288;28;97493;-56
2024/01/22 11:34:45;;;;;;;;;26.00;23.60;;;;;21.63;22.84;99095.94;6221503;28;96284;-54
2024/01/22 11:37:52;;;;;;;;;21.00;19.00;;;;;21.28;23.49;99086.91;6219609;28;96967;-55
2024/01/22 11:40:56;;;;;;;;;16.60;16.00;;;;;20.91;23.09;99083.88;6219558;28;96667;-54
2024/01/22 11:43:59;;;;;;;;;17.60;17.00;;;;;20.65;23.02;99086.75;6240461;28;96935;-55
2024/01/22 11:47:04;;;;;;;;;21.00;18.00;;;;;20.32;22.73;99084.75;6238978;28;96342;-55
2024/01/22 11:50:10;;;;;;;;;17.75;15.00;;;;;19.99;23.20;99080.69;6232192;27;96237;-55
2024/01/22 11:53:15;;;;;;;;;20.00;17.20;;;;;19.76;23.02;99090.34;6215001;28;96432;-55
2024/01/22 11:56:19;;;;;;;;;18.00;15.25;;;;;19.60;23.12;99082.41;6235135;28;96334;-56
2024/01/22 11:59:23;;;;;;;;;15.00;13.00;;;;;19.45;23.48;99088.72;6223126;27;97155;-55
2024/01/22 12:02:26;;;;;;;;;14.60;13.00;;;;;19.42;22.94;99087.34;6226450;27;96247;-56
2024/01/22 12:05:29;;;;;;;;;10.00;10.00;;;;;19.52;22.64;99082.97;6236349;27;96418;-55
2024/01/22 12:08:35;;;;;;;;;9.20;9.00;;;;;19.52;22.34;99078.34;6233519;27;98246;-55
2024/01/22 12:11:51;;;;;;;;;11.00;9.20;;;;;19.47;21.98;99072.88;6224439;27;96124;-54
2024/01/22 12:14:58;;;;;;;;;11.40;10.60;;;;;19.38;22.18;99079.97;6229360;27;96890;-54
2024/01/22 12:18:02;;;;;;;;;11.50;9.75;;;;;19.28;22.82;99067.13;6244788;27;96855;-54
2024/01/22 12:21:06;;;;;;;;;11.00;10.75;;;;;19.25;23.34;99056.75;6239196;27;96503;-56
2024/01/22 12:24:15;;;;;;;;;11.50;10.00;;;;;19.27;22.99;99056.44;6229862;27;96254;-56
2024/01/22 12:27:20;;;;;;;;;9.00;8.40;;;;;19.22;22.19;99051.81;6228723;27;97175;-55
2024/01/22 12:30:24;;;;;;;;;10.00;10.00;;;;;19.14;22.51;99051.53;6233411;28;96684;-55
2024/01/22 12:33:28;;;;;;;;;9.20;8.80;;;;;18.97;22.54;99028.03;6224563;27;97064;-59
2024/01/22 12:36:32;;;;;;;;;9.25;9.25;;;;;18.98;22.93;99035.13;6222571;28;96630;-58
2024/01/22 12:39:38;;;;;;;;;9.75;8.00;;;;;18.87;22.91;99035.38;6224990;28;96552;-58
2024/01/22 12:42:43;;;;;;;;;7.20;6.60;;;;;18.75;22.84;99034.84;6233807;27;96882;-58
2024/01/22 12:45:46;;;;;;;;;7.40;7.00;;;;;18.51;22.59;99016.22;6230539;27;96340;-59
2024/01/22 12:48:55;;;;;;;;;7.00;7.00;;;;;18.45;22.70;99019.19;6234091;28;96323;-58
2024/01/22 12:51:59;;;;;;;;;4.50;3.25;;;;;18.20;22.33;99000.84;6234565;27;96390;-59
2024/01/22 12:55:04;;;;;;;;;5.00;4.00;;;;;17.95;22.61;99001.56;6223577;28;96932;-59
2024/01/22 12:58:07;;;;;;;;;6.00;5.00;;;;;17.80;22.56;98996.03;6235203;28;96205;-59
2024/01/22 13:01:10;;;;;;;;;6.00;5.00;;;;;17.69;22.64;99008.00;6231669;28;96873;-58
2024/01/22 13:04:16;;;;;;;;;5.50;5.00;;;;;17.71;22.80;99003.09;6231917;27;98217;-58
2024/01/22 13:07:20;;;;;;;;;7.00;6.00;;;;;17.73;22.46;99011.84;6222859;28;97666;-59
2024/01/22 13:10:25;;;;;;;;;5.25;4.25;;;;;17.67;22.54;98994.63;6220295;28;96411;-58
2024/01/22 13:13:28;;;;;;;;;5.25;4.25;;;;;17.76;22.77;99000.38;6240434;28;96250;-59
2024/01/22 13:16:32;;;;;;;;;8.00;7.75;;;;;17.63;22.84;98993.53;6225035;28;96429;-59
2024/01/22 13:19:37;;;;;;;;;5.50;5.00;;;;;17.41;23.07;98976.44;6222008;28;96742;-59
2024/01/22 13:22:43;;;;;;;;;7.00;5.40;;;;;17.21;22.79;98974.41;6230518;28;97684;-58
2024/01/22 13:25:48;;;;;;;;;6.00;6.00;;;;;17.26;22.80;98979.06;6224028;28;96272;-58
2024/01/22 13:28:52;;;;;;;;;5.00;5.00;;;;;17.32;23.37;98967.97;6222369;27;97039;-59
2024/01/22 13:31:55;;;;;;;;;4.00;3.25;;;;;17.01;23.00;98957.09;6223105;28;96355;-58
2024/01/22 13:34:59;;;;;;;;;5.00;4.00;;;;;16.68;23.17;98947.31;6222942;27;96359;-58
2024/01/22 13:38:02;;;;;;;;;4.40;4.40;;;;;16.51;23.36;98949.34;6224779;28;97139;-58
2024/01/22 13:41:07;;;;;;;;;6.00;6.00;;;;;16.11;23.17;98952.47;6231104;27;96577;-58
2024/01/22 13:44:11;;;;;;;;;3.00;3.00;;;;;15.78;23.77;98948.84;6234504;27;97582;-60
2024/01/22 13:47:14;;;;;;;;;6.80;5.20;;;;;15.55;23.85;98933.59;6261216;27;96556;-61
2024/01/22 13:50:34;;;;;;;;;4.00;4.00;;;;;15.24;24.33;98915.25;6245531;28;96692;-62
2024/01/22 13:53:37;;;;;;;;;4.00;4.00;;;;;15.01;24.44;98896.44;6236675;28;96547;-62
2024/01/22 13:56:42;;;;;;;;;3.20;3.20;;;;;14.99;24.40;98909.47;6228750;28;96582;-60
2024/01/22 13:59:45;;;;;;;;;4.00;4.00;;;;;14.96;24.68;98905.34;6247497;28;96343;-57
2024/01/22 14:02:48;;;;;;;;;5.00;5.00;;;;;14.79;24.56;98893.69;6247218;27;96319;-62
2024/01/22 14:05:53;;;;;;;;;4.60;4.00;;;;;14.61;24.48;98886.63;6235702;28;96290;-61
2024/01/22 14:08:57;;;;;;;;;5.60;5.00;;;;;14.45;24.66;98876.63;6244004;27;96436;-60
2024/01/22 14:12:01;;;;;;;;;5.00;4.00;;;;;14.42;24.65;98874.38;6242908;27;98760;-60
2024/01/22 14:15:06;;;;;;;;;7.00;5.00;;;;;14.14;24.14;98872.53;6242691;28;96336;-61
2024/01/22 14:18:09;;;;;;;;;6.20;5.00;;;;;14.01;24.30;98886.41;6245220;28;96313;-60
2024/01/22 14:21:13;;;;;;;;;5.00;5.00;;;;;14.02;24.42;98904.31;6228025;28;96156;-63